MSC Ludovica — HPAF — position and weather

sailwx.info

Track history (hours):
 
Tides and Currents Weather Stations Pressure Air Temp Water Temp Dewpoint Dewpoint Depression Visibility Wind Speed Wind Dir Waves Ship Positions

MSC Ludovica

Last reported at 2017-Feb-13 07:20 UTC. Time now 2017-Feb-20 13:58 UTC.
Position S 34°48' W 057°29'.

Length 301 m; draft 8.8 m.

Type: Ship. MMSI: 351248000.

Date/timePositionNaut miles runAvg speedWind from/ knotsBaromVisibWave heightAir tempDewpointWater temp
2017-Feb-13 07:20S 34°48' W 057°29'1113.7
2017-Feb-13 06:33S 34°44' W 057°41'1010.1
2017-Feb-13 05:33S 34°43' W 057°53'1111.2
2017-Feb-13 04:33S 34°38' W 058°06'4 0.2
2017-Feb-12 09:13S 34°37' W 058°10'812.2
2017-Feb-12 08:33S 34°40' W 058°01'1111.4
2017-Feb-12 07:33S 34°44' W 057°48'82517.1
2017-Feb-10 07:13S 24°54' W 046°43'1522.5
2017-Feb-10 06:33S 24°40' W 046°37'2222.2
2017-Feb-10 05:33S 24°20' W 046°28'2120.7
2017-Feb-10 04:34S 24°00' W 046°20'4 0.3
2017-Feb-09 14:28S 23°56' W 046°19'6 6.4
2017-Feb-09 13:33S 24°02' W 046°21'8 8.3
2017-Feb-09 12:34S 24°10' W 046°23'1818.4
2017-Feb-09 11:33S 24°23' W 046°09'20315.6
2017-Feb-08 22:33S 23°23' W 042°38'  
Track history (hours):
 
Tides and Currents Weather Stations Pressure Air Temp Water Temp Dewpoint Dewpoint Depression Visibility Wind Speed Wind Dir Waves Ship Positions

MSC Ludovica

Last reported at 2017-Feb-13 07:20 UTC. Time now 2017-Feb-20 13:58 UTC.
Position S 34°48' W 057°29'.

Length 301 m; draft 8.8 m.

Type: Ship. MMSI: 351248000.

Date/timePositionNaut miles runAvg speedWind from/ knotsBaromVisibWave heightAir tempDewpointWater temp
2017-Feb-13 07:20S 34°48' W 057°29'1113.7
2017-Feb-13 06:33S 34°44' W 057°41'1010.1
2017-Feb-13 05:33S 34°43' W 057°53'1111.2
2017-Feb-13 04:33S 34°38' W 058°06'4 0.2
2017-Feb-12 09:13S 34°37' W 058°10'812.2
2017-Feb-12 08:33S 34°40' W 058°01'1111.4
2017-Feb-12 07:33S 34°44' W 057°48'82517.1
2017-Feb-10 07:13S 24°54' W 046°43'1522.5
2017-Feb-10 06:33S 24°40' W 046°37'2222.2
2017-Feb-10 05:33S 24°20' W 046°28'2120.7
2017-Feb-10 04:34S 24°00' W 046°20'4 0.3
2017-Feb-09 14:28S 23°56' W 046°19'6 6.4
2017-Feb-09 13:33S 24°02' W 046°21'8 8.3
2017-Feb-09 12:34S 24°10' W 046°23'1818.4
2017-Feb-09 11:33S 24°23' W 046°09'20315.6
2017-Feb-08 22:33S 23°23' W 042°38'  

Dump ship's entire track history